createdAt,value
2023-03-17T00:01:25.070Z,50.39
2023-03-17T00:03:53.286Z,50.39
2023-03-17T00:06:28.551Z,50.36
2023-03-17T00:08:57.626Z,50.53
2023-03-17T00:11:26.161Z,50.58
2023-03-17T00:16:50.679Z,50.44
2023-03-17T00:19:22.318Z,50.43
2023-03-17T00:21:51.726Z,50.67
2023-03-17T00:24:19.676Z,50.54
2023-03-17T00:26:48.257Z,50.57
2023-03-17T00:29:16.391Z,50.61
2023-03-17T00:31:45.692Z,50.60
2023-03-17T00:34:18.386Z,50.68
2023-03-17T00:36:48.034Z,50.64
2023-03-17T00:39:17.263Z,50.66
2023-03-17T00:44:13.295Z,50.86
2023-03-17T00:46:42.148Z,50.73
2023-03-17T00:49:20.897Z,50.73
2023-03-17T00:51:49.687Z,50.83
2023-03-17T00:54:19.431Z,50.69
2023-03-17T00:56:48.395Z,50.78
2023-03-17T00:59:22.681Z,51.04
2023-03-17T01:01:51.244Z,51.07
2023-03-17T01:04:20.711Z,50.86
2023-03-17T01:06:49.503Z,50.94
2023-03-17T01:09:19.438Z,50.98
2023-03-17T01:11:48.780Z,51.04
2023-03-17T01:14:17.818Z,51.02
2023-03-17T01:16:47.687Z,51.14
2023-03-17T01:19:17.012Z,51.23
2023-03-17T01:21:48.120Z,51.15
2023-03-17T01:24:15.982Z,51.18
2023-03-17T01:26:43.915Z,50.91
2023-03-17T01:29:12.369Z,51.61
2023-03-17T01:31:40.274Z,51.43
2023-03-17T01:34:08.283Z,51.09
2023-03-17T01:36:36.143Z,51.52
2023-03-17T01:39:07.352Z,51.37
2023-03-17T01:41:35.572Z,51.20
2023-03-17T01:44:03.398Z,51.42
2023-03-17T01:46:34.007Z,51.46
2023-03-17T01:49:11.265Z,51.29
2023-03-17T01:51:47.707Z,51.43
2023-03-17T01:54:19.662Z,51.49
2023-03-17T01:56:52.514Z,51.63
2023-03-17T01:59:24.973Z,51.53
2023-03-17T02:01:57.736Z,51.47
2023-03-17T02:04:26.974Z,51.61
2023-03-17T02:06:58.261Z,51.59
2023-03-17T02:09:28.583Z,51.68
2023-03-17T02:11:57.652Z,51.54
2023-03-17T02:14:25.685Z,51.76
2023-03-17T02:16:53.765Z,51.73
2023-03-17T02:19:21.586Z,52.02
2023-03-17T02:21:52.514Z,51.82
2023-03-17T02:24:27.489Z,51.92
2023-03-17T02:26:58.386Z,51.90
2023-03-17T02:29:26.159Z,51.72
2023-03-17T02:31:54.706Z,51.81
2023-03-17T02:34:22.549Z,51.86
2023-03-17T02:36:51.734Z,52.04
2023-03-17T02:39:19.795Z,52.09
2023-03-17T02:41:47.680Z,51.86
2023-03-17T02:44:16.202Z,52.07
2023-03-17T02:46:44.148Z,52.16
2023-03-17T02:49:12.921Z,51.99
2023-03-17T02:51:40.875Z,52.12
2023-03-17T02:54:10.174Z,52.09
2023-03-17T02:56:38.389Z,52.19
2023-03-17T02:59:07.222Z,52.27
2023-03-17T03:01:35.370Z,52.34
2023-03-17T03:04:03.985Z,52.38
2023-03-17T03:06:32.750Z,52.44
2023-03-17T03:09:00.857Z,52.43
2023-03-17T03:11:30.039Z,52.65
2023-03-17T03:13:58.045Z,52.59
2023-03-17T03:16:26.369Z,52.81
2023-03-17T03:18:54.244Z,52.92
2023-03-17T03:21:22.293Z,52.74
2023-03-17T03:23:50.104Z,52.93
2023-03-17T03:26:18.006Z,52.89
2023-03-17T03:28:47.399Z,52.90
2023-03-17T03:31:15.345Z,53.19
2023-03-17T03:33:43.606Z,53.10
2023-03-17T03:36:12.044Z,53.15
2023-03-17T03:38:40.253Z,53.23
2023-03-17T03:41:08.431Z,53.00
2023-03-17T03:43:36.421Z,53.37
2023-03-17T03:46:06.213Z,53.22
2023-03-17T03:48:34.270Z,53.17
2023-03-17T03:51:04.196Z,53.37
2023-03-17T03:53:32.213Z,53.44
2023-03-17T03:56:00.107Z,53.62
2023-03-17T03:58:28.082Z,53.63
2023-03-17T04:00:55.909Z,53.61
2023-03-17T04:03:25.222Z,53.51
2023-03-17T04:05:53.015Z,53.66
2023-03-17T04:08:21.081Z,53.76
2023-03-17T04:10:48.818Z,53.72
2023-03-17T04:13:16.613Z,53.91
2023-03-17T04:15:44.494Z,54.03
2023-03-17T04:18:14.274Z,53.79
2023-03-17T04:20:43.491Z,53.92
2023-03-17T04:23:11.482Z,54.17
2023-03-17T04:25:39.312Z,54.24
2023-03-17T04:28:09.015Z,54.30
2023-03-17T04:30:36.868Z,54.13
2023-03-17T04:33:04.906Z,54.23
2023-03-17T04:35:32.725Z,54.49
2023-03-17T04:38:01.959Z,54.34
2023-03-17T04:40:30.060Z,54.39
2023-03-17T04:42:58.076Z,54.38
2023-03-17T04:45:26.001Z,54.37
2023-03-17T04:47:53.792Z,54.37
2023-03-17T04:50:21.686Z,54.64
2023-03-17T04:52:49.476Z,54.62
2023-03-17T04:55:19.001Z,54.70
2023-03-17T04:57:47.527Z,54.64
2023-03-17T05:00:16.545Z,54.77
2023-03-17T05:02:44.501Z,54.86
2023-03-17T05:05:12.262Z,54.92
2023-03-17T05:07:40.164Z,54.89
2023-03-17T05:10:09.473Z,55.16
2023-03-17T05:12:38.698Z,55.08
2023-03-17T05:15:10.028Z,55.05
2023-03-17T05:17:39.109Z,55.17
2023-03-17T05:20:08.563Z,55.37
2023-03-17T05:22:36.795Z,55.37
2023-03-17T05:25:05.850Z,55.59
2023-03-17T05:27:34.113Z,55.14
2023-03-17T05:30:03.769Z,55.61
2023-03-17T05:32:32.138Z,55.51
2023-03-17T05:35:00.210Z,55.61
2023-03-17T05:37:28.764Z,55.84
2023-03-17T05:39:56.737Z,55.47
2023-03-17T05:42:24.631Z,55.89
2023-03-17T05:44:52.486Z,55.93
2023-03-17T05:47:22.832Z,55.58
2023-03-17T05:49:50.845Z,56.20
2023-03-17T05:52:18.559Z,55.70
2023-03-17T05:54:48.961Z,56.29
2023-03-17T05:57:17.177Z,56.11
2023-03-17T05:59:45.055Z,56.09
2023-03-17T06:02:13.665Z,56.25
2023-03-17T06:04:43.190Z,56.00
2023-03-17T06:07:12.092Z,56.35
2023-03-17T06:09:40.188Z,56.23
2023-03-17T06:12:09.411Z,56.33
2023-03-17T06:14:37.473Z,56.48
2023-03-17T06:17:05.549Z,56.34
2023-03-17T06:19:33.288Z,56.39
2023-03-17T06:22:02.739Z,56.39
2023-03-17T06:24:30.597Z,56.96
2023-03-17T06:26:58.344Z,56.67
2023-03-17T06:29:26.512Z,57.12
2023-03-17T06:31:54.410Z,57.26
2023-03-17T06:34:24.146Z,56.69
2023-03-17T06:36:52.253Z,56.94
2023-03-17T06:39:21.430Z,57.31
2023-03-17T06:41:49.332Z,57.42
2023-03-17T06:44:17.685Z,56.94
2023-03-17T06:46:45.509Z,57.28
2023-03-17T06:49:13.514Z,57.19
2023-03-17T06:51:41.470Z,57.78
2023-03-17T06:54:09.680Z,57.52
2023-03-17T06:56:39.065Z,57.41
2023-03-17T06:59:06.885Z,57.46
2023-03-17T07:01:34.793Z,57.70
2023-03-17T07:04:02.605Z,57.49
2023-03-17T07:06:31.041Z,57.46
2023-03-17T07:09:00.981Z,57.95
2023-03-17T07:11:30.787Z,58.09
2023-03-17T07:14:00.301Z,57.75
2023-03-17T07:16:28.922Z,58.00
2023-03-17T07:18:56.760Z,57.92
2023-03-17T07:21:24.646Z,57.99
2023-03-17T07:23:52.404Z,58.04
2023-03-17T07:26:20.245Z,57.91
2023-03-17T07:28:48.239Z,58.03
2023-03-17T07:31:17.611Z,58.00
2023-03-17T07:33:45.571Z,58.39
2023-03-17T07:36:13.547Z,58.42
2023-03-17T07:38:41.744Z,58.16
2023-03-17T07:41:10.171Z,58.33
2023-03-17T07:43:39.009Z,58.61
2023-03-17T07:46:07.482Z,58.61
2023-03-17T07:48:40.988Z,58.65
2023-03-17T07:51:14.107Z,58.52
2023-03-17T07:53:42.009Z,58.65
2023-03-17T07:56:10.531Z,58.92
2023-03-17T07:58:38.466Z,58.72
2023-03-17T08:01:06.862Z,58.80
2023-03-17T08:03:38.149Z,58.89
2023-03-17T08:06:08.837Z,58.89
2023-03-17T08:08:36.970Z,59.10
2023-03-17T08:11:06.465Z,59.21
2023-03-17T08:13:34.854Z,59.10
2023-03-17T08:16:02.708Z,59.25
2023-03-17T08:18:31.026Z,59.03
2023-03-17T08:21:00.225Z,59.35
2023-03-17T08:23:28.130Z,59.31
2023-03-17T08:25:58.240Z,59.76
2023-03-17T08:28:28.099Z,59.81
2023-03-17T08:30:57.787Z,59.68
2023-03-17T08:33:25.759Z,59.24
2023-03-17T08:35:53.656Z,59.64
2023-03-17T08:38:22.774Z,59.32
2023-03-17T08:40:50.946Z,60.13
2023-03-17T08:43:18.850Z,60.26
2023-03-17T08:45:46.779Z,59.59
2023-03-17T08:48:15.291Z,59.77
2023-03-17T08:50:43.313Z,59.59
2023-03-17T08:53:11.918Z,60.13
2023-03-17T08:55:41.240Z,59.94
2023-03-17T08:58:09.442Z,59.95
2023-03-17T09:00:37.214Z,60.02
2023-03-17T09:03:05.764Z,60.03
2023-03-17T09:05:36.914Z,59.88
2023-03-17T09:08:06.248Z,60.03
2023-03-17T09:10:34.371Z,60.13
2023-03-17T09:13:04.665Z,59.70
2023-03-17T09:15:34.193Z,59.87
2023-03-17T09:18:03.325Z,59.86
2023-03-17T09:20:31.540Z,59.88
2023-03-17T09:22:59.734Z,59.50
2023-03-17T09:25:27.811Z,59.88
2023-03-17T09:27:56.530Z,59.88
2023-03-17T09:30:26.969Z,59.82
2023-03-17T09:32:54.957Z,59.99
2023-03-17T09:35:22.825Z,59.81
2023-03-17T09:37:51.591Z,59.98
2023-03-17T09:40:26.319Z,59.81
2023-03-17T09:43:08.089Z,59.92
2023-03-17T09:45:42.917Z,59.86
2023-03-17T09:48:29.719Z,59.87
2023-03-17T09:51:01.545Z,60.67
2023-03-17T09:53:34.275Z,60.55
2023-03-17T09:56:07.173Z,60.55
2023-03-17T09:58:36.519Z,60.88
2023-03-17T10:01:06.323Z,61.17
2023-03-17T10:03:34.690Z,60.88
2023-03-17T10:06:34.598Z,60.88
2023-03-17T10:09:11.465Z,60.88
2023-03-17T10:11:43.033Z,61.06
2023-03-17T10:14:39.668Z,61.01
2023-03-17T10:17:17.748Z,61.71
2023-03-17T10:19:49.635Z,60.94
2023-03-17T10:22:23.838Z,61.43
2023-03-17T10:24:53.712Z,61.45
2023-03-17T10:27:22.480Z,61.15
2023-03-17T10:29:50.899Z,60.73
2023-03-17T10:32:20.091Z,61.04
2023-03-17T10:34:49.382Z,61.41
2023-03-17T10:37:19.903Z,61.02
2023-03-17T10:39:49.572Z,61.17
2023-03-17T10:42:23.758Z,61.02
2023-03-17T10:44:55.563Z,60.98
2023-03-17T10:47:32.687Z,61.29
2023-03-17T10:50:05.669Z,60.75
2023-03-17T10:52:39.646Z,60.75
2023-03-17T10:55:09.113Z,60.98
2023-03-17T10:57:38.915Z,60.85
2023-03-17T11:00:15.716Z,61.29
2023-03-17T11:02:49.335Z,60.99
2023-03-17T11:05:23.590Z,60.81
2023-03-17T11:07:57.627Z,61.07
2023-03-17T11:10:27.946Z,60.97
2023-03-17T11:13:00.508Z,60.36
2023-03-17T11:15:33.807Z,60.35
2023-03-17T11:18:04.815Z,60.33
2023-03-17T11:20:47.726Z,60.76
2023-03-17T11:23:39.645Z,60.82
2023-03-17T11:26:22.874Z,60.98
2023-03-17T11:28:58.596Z,60.40
2023-03-17T11:31:31.106Z,60.53
2023-03-17T11:34:07.007Z,60.67
2023-03-17T11:36:48.462Z,60.60
2023-03-17T11:39:21.967Z,60.82
2023-03-17T11:42:01.952Z,60.75
2023-03-17T11:45:02.577Z,60.65
2023-03-17T11:47:39.662Z,60.32
2023-03-17T11:50:24.311Z,60.43
2023-03-17T11:53:03.652Z,60.65
2023-03-17T11:55:42.784Z,60.70
2023-03-17T11:58:18.723Z,60.42
2023-03-17T12:00:52.570Z,60.20
2023-03-17T12:03:27.573Z,60.52
2023-03-17T12:06:01.590Z,60.65
2023-03-17T12:08:38.784Z,60.33
2023-03-17T12:11:10.615Z,60.63
2023-03-17T12:13:43.083Z,60.30
2023-03-17T12:16:17.525Z,60.52
2023-03-17T12:18:56.801Z,60.72
2023-03-17T12:21:32.881Z,60.66
2023-03-17T12:24:05.094Z,60.36
2023-03-17T12:26:38.219Z,60.32
2023-03-17T12:29:12.996Z,60.63
2023-03-17T12:31:47.099Z,60.58
2023-03-17T12:34:21.500Z,60.43
2023-03-17T12:36:51.458Z,60.63
2023-03-17T12:39:22.988Z,60.44
2023-03-17T12:42:17.644Z,60.29
2023-03-17T12:45:01.979Z,60.58
2023-03-17T12:47:45.159Z,60.67
2023-03-17T12:50:42.065Z,60.46
2023-03-17T12:53:30.746Z,60.24
2023-03-17T12:56:03.149Z,60.57
2023-03-17T12:58:36.565Z,59.99
2023-03-17T13:01:16.000Z,60.20
2023-03-17T13:03:59.649Z,60.50
2023-03-17T13:06:31.353Z,60.50
2023-03-17T13:09:34.427Z,60.52
2023-03-17T13:12:03.856Z,60.18
2023-03-17T13:14:43.298Z,59.94
2023-03-17T13:17:34.213Z,60.25
2023-03-17T13:20:20.258Z,60.02
2023-03-17T13:23:04.529Z,60.26
2023-03-17T13:25:35.995Z,60.39
2023-03-17T13:28:27.060Z,59.93
2023-03-17T13:31:11.380Z,60.17
2023-03-17T13:33:46.745Z,59.86
2023-03-17T13:36:29.468Z,60.17
2023-03-17T13:39:24.640Z,60.23
2023-03-17T13:42:18.162Z,60.46
2023-03-17T13:45:08.681Z,60.42
2023-03-17T13:47:39.975Z,60.22
2023-03-17T13:50:13.617Z,60.17
2023-03-17T13:52:47.179Z,59.96
2023-03-17T13:55:36.044Z,60.31
2023-03-17T13:58:33.202Z,60.08
2023-03-17T14:01:06.751Z,60.01
2023-03-17T14:03:47.426Z,60.12
2023-03-17T14:06:16.358Z,60.10
2023-03-17T14:08:48.783Z,59.93
2023-03-17T14:11:29.897Z,59.99
2023-03-17T14:14:31.163Z,59.90
2023-03-17T14:17:05.143Z,59.76
2023-03-17T14:19:33.432Z,60.14
2023-03-17T14:22:06.343Z,59.92
2023-03-17T14:24:35.073Z,59.83
2023-03-17T14:27:07.910Z,60.05
2023-03-17T14:29:38.078Z,60.01
2023-03-17T14:32:08.748Z,60.01
2023-03-17T14:34:43.942Z,60.16
2023-03-17T14:37:12.986Z,59.96
2023-03-17T14:39:46.284Z,59.91
2023-03-17T14:42:14.294Z,59.99
2023-03-17T14:44:44.696Z,59.96
2023-03-17T14:47:21.020Z,60.03
2023-03-17T14:49:49.437Z,59.81
2023-03-17T14:52:21.152Z,59.97
2023-03-17T14:54:52.910Z,59.97
2023-03-17T14:57:24.927Z,59.95
2023-03-17T15:00:02.605Z,59.61
2023-03-17T15:02:35.394Z,59.90
2023-03-17T15:05:13.876Z,60.19
2023-03-17T15:07:42.752Z,59.92
2023-03-17T15:10:17.062Z,59.79
2023-03-17T15:12:46.702Z,59.76
2023-03-17T15:15:23.869Z,59.87
2023-03-17T15:17:53.290Z,59.86
2023-03-17T15:20:21.721Z,59.90
2023-03-17T15:22:56.916Z,60.01
2023-03-17T15:25:29.008Z,59.97
2023-03-17T15:27:57.107Z,59.99
2023-03-17T15:30:37.461Z,59.96
2023-03-17T15:33:20.560Z,60.06
2023-03-17T15:35:48.519Z,59.85
2023-03-17T15:38:16.440Z,59.85
2023-03-17T15:40:44.393Z,59.82
2023-03-17T15:43:15.065Z,59.82
2023-03-17T15:45:45.187Z,59.94
2023-03-17T15:48:20.427Z,59.84
2023-03-17T15:50:49.627Z,59.79
2023-03-17T15:53:17.918Z,59.82
2023-03-17T15:55:46.182Z,59.68
2023-03-17T15:58:14.145Z,60.02
2023-03-17T16:00:42.514Z,59.93
2023-03-17T16:03:19.662Z,59.82
2023-03-17T16:05:47.561Z,59.87
2023-03-17T16:08:17.820Z,59.83
2023-03-17T16:10:46.472Z,59.95
2023-03-17T16:13:15.529Z,59.84
2023-03-17T16:15:47.249Z,59.76
2023-03-17T16:18:19.243Z,59.53
2023-03-17T16:20:48.885Z,59.77
2023-03-17T16:23:20.001Z,59.66
2023-03-17T16:25:48.036Z,59.89
2023-03-17T16:28:17.691Z,59.95
2023-03-17T16:30:46.434Z,59.88
2023-03-17T16:33:19.669Z,59.97
2023-03-17T16:35:49.546Z,60.05
2023-03-17T16:38:20.903Z,59.67
2023-03-17T16:40:51.531Z,59.96
2023-03-17T16:43:25.578Z,59.84
2023-03-17T16:45:55.762Z,59.88
2023-03-17T16:48:25.949Z,59.85
2023-03-17T16:50:54.430Z,59.82
2023-03-17T16:53:22.914Z,59.86
2023-03-17T16:55:52.182Z,59.89
2023-03-17T16:58:22.177Z,59.90
2023-03-17T17:00:52.184Z,59.77
2023-03-17T17:03:20.281Z,59.89
2023-03-17T17:05:49.631Z,59.88
2023-03-17T17:08:17.411Z,59.87
2023-03-17T17:10:45.395Z,59.90
2023-03-17T17:13:13.500Z,59.93
2023-03-17T17:15:44.152Z,59.96
2023-03-17T17:18:15.891Z,59.95
2023-03-17T17:20:45.253Z,59.95
2023-03-17T17:23:17.302Z,60.13
2023-03-17T17:25:45.396Z,59.77
2023-03-17T17:28:17.631Z,59.97
2023-03-17T17:30:47.915Z,60.12
2023-03-17T17:33:16.964Z,59.98
2023-03-17T17:35:45.864Z,59.95
2023-03-17T17:38:21.055Z,60.12
2023-03-17T17:40:49.833Z,60.00
2023-03-17T17:43:19.132Z,60.08
2023-03-17T17:45:49.385Z,60.12
2023-03-17T17:48:18.270Z,60.01
2023-03-17T17:50:46.592Z,60.15
2023-03-17T17:53:14.856Z,60.04
2023-03-17T17:55:45.173Z,60.18
2023-03-17T17:58:14.370Z,60.17
2023-03-17T18:00:42.403Z,60.23
2023-03-17T18:03:10.369Z,60.19
2023-03-17T18:05:39.579Z,60.13
2023-03-17T18:08:08.053Z,60.21
2023-03-17T18:10:36.146Z,60.23
2023-03-17T18:13:05.658Z,60.17
2023-03-17T18:15:33.870Z,60.24
2023-03-17T18:18:02.134Z,60.04
2023-03-17T18:20:30.439Z,60.11
2023-03-17T18:22:58.747Z,60.20
2023-03-17T18:25:27.178Z,60.27
2023-03-17T18:27:56.325Z,60.36
2023-03-17T18:30:27.361Z,60.41
2023-03-17T18:32:58.294Z,60.36
2023-03-17T18:35:28.540Z,60.22
2023-03-17T18:37:57.930Z,60.66
2023-03-17T18:40:26.486Z,60.46
2023-03-17T18:42:54.974Z,60.38
2023-03-17T18:45:22.901Z,60.34
2023-03-17T18:47:52.079Z,60.54
2023-03-17T18:50:21.910Z,60.31
2023-03-17T18:52:50.077Z,60.56
2023-03-17T18:55:18.227Z,60.50
2023-03-17T18:57:46.770Z,60.63
2023-03-17T19:00:17.421Z,60.54
2023-03-17T19:02:46.227Z,60.44
2023-03-17T19:05:16.193Z,60.54
2023-03-17T19:07:44.057Z,60.61
2023-03-17T19:10:13.954Z,60.41
2023-03-17T19:12:42.413Z,60.67
2023-03-17T19:15:12.507Z,60.75
2023-03-17T19:17:41.339Z,60.68
2023-03-17T19:20:11.127Z,60.38
2023-03-17T19:22:40.371Z,60.79
2023-03-17T19:25:10.003Z,60.54
2023-03-17T19:27:41.321Z,60.97
2023-03-17T19:30:10.393Z,60.86
2023-03-17T19:32:40.570Z,60.67
2023-03-17T19:35:08.937Z,60.81
2023-03-17T19:37:38.112Z,60.91
2023-03-17T19:40:09.798Z,60.83
2023-03-17T19:42:37.985Z,60.95
2023-03-17T19:45:06.712Z,61.01
2023-03-17T19:47:34.710Z,60.98
2023-03-17T19:50:02.508Z,60.99
2023-03-17T19:52:30.433Z,61.04
2023-03-17T19:54:58.680Z,61.18
2023-03-17T19:57:28.103Z,61.01
2023-03-17T19:59:56.189Z,61.28
2023-03-17T20:02:23.961Z,61.13
2023-03-17T20:04:51.928Z,61.18
2023-03-17T20:07:19.807Z,61.03
2023-03-17T20:09:48.586Z,61.51
2023-03-17T20:12:16.793Z,61.29
2023-03-17T20:14:46.021Z,60.91
2023-03-17T20:17:15.376Z,61.26
2023-03-17T20:19:43.202Z,61.33
2023-03-17T20:22:11.612Z,61.38
2023-03-17T20:24:39.384Z,61.64
2023-03-17T20:27:08.011Z,61.11
2023-03-17T20:29:35.799Z,61.31
2023-03-17T20:32:05.496Z,61.41
2023-03-17T20:34:34.604Z,61.44
2023-03-17T20:37:02.816Z,61.51
2023-03-17T20:39:30.749Z,61.46
2023-03-17T20:41:58.561Z,61.68
2023-03-17T20:44:26.319Z,61.45
2023-03-17T20:46:54.880Z,61.75
2023-03-17T20:49:24.047Z,61.71
2023-03-17T20:51:51.944Z,61.57
2023-03-17T20:54:20.037Z,61.47
2023-03-17T20:56:52.314Z,61.54
2023-03-17T20:59:20.446Z,61.60
2023-03-17T21:01:48.303Z,61.87
2023-03-17T21:04:17.676Z,61.92
2023-03-17T21:06:46.904Z,61.70
2023-03-17T21:09:14.736Z,61.65
2023-03-17T21:11:42.682Z,61.86
2023-03-17T21:14:13.320Z,61.82
2023-03-17T21:16:42.653Z,61.62
2023-03-17T21:19:13.569Z,61.88
2023-03-17T21:21:41.354Z,61.79
2023-03-17T21:24:27.629Z,61.56
2023-03-17T21:26:55.785Z,62.01
2023-03-17T21:29:23.597Z,61.93
2023-03-17T21:31:51.574Z,61.80
2023-03-17T21:34:19.936Z,62.10
2023-03-17T21:36:47.870Z,61.91
2023-03-17T21:39:17.708Z,61.99
2023-03-17T21:41:46.220Z,61.98
2023-03-17T21:44:15.946Z,62.25
2023-03-17T21:46:43.936Z,62.08
2023-03-17T21:49:13.208Z,62.19
2023-03-17T21:51:41.057Z,62.03
2023-03-17T21:54:08.852Z,62.10
2023-03-17T21:56:38.675Z,62.25
2023-03-17T21:59:11.014Z,62.05
2023-03-17T22:01:39.039Z,62.02
2023-03-17T22:04:07.518Z,62.34
2023-03-17T22:06:35.476Z,62.08
2023-03-17T22:09:04.397Z,62.14
2023-03-17T22:11:32.282Z,62.38
2023-03-17T22:14:01.879Z,62.12
2023-03-17T22:16:30.041Z,62.32
2023-03-17T22:18:58.090Z,62.17
2023-03-17T22:21:26.137Z,62.37
2023-03-17T22:23:53.900Z,62.34
2023-03-17T22:26:22.998Z,62.64
2023-03-17T22:28:51.506Z,62.46
2023-03-17T22:31:22.882Z,62.17
2023-03-17T22:33:52.665Z,62.34
2023-03-17T22:36:20.737Z,62.72
2023-03-17T22:38:48.722Z,62.84
2023-03-17T22:41:18.325Z,62.86
2023-03-17T22:43:47.060Z,62.41
2023-03-17T22:46:16.395Z,62.44
2023-03-17T22:48:46.769Z,62.80
2023-03-17T22:51:17.508Z,62.75
2023-03-17T22:53:46.095Z,62.59
2023-03-17T22:56:15.691Z,62.88
2023-03-17T22:58:43.936Z,62.65
2023-03-17T23:01:13.422Z,62.65
2023-03-17T23:03:42.087Z,62.68
2023-03-17T23:06:13.106Z,62.98
2023-03-17T23:08:42.810Z,63.15
2023-03-17T23:11:13.515Z,62.99
2023-03-17T23:13:42.196Z,62.64
2023-03-17T23:16:10.468Z,63.10
2023-03-17T23:18:38.387Z,62.72
2023-03-17T23:21:07.492Z,62.81
2023-03-17T23:23:38.114Z,62.78
2023-03-17T23:26:06.349Z,62.75
2023-03-17T23:28:34.284Z,63.31
2023-03-17T23:31:02.779Z,62.90
2023-03-17T23:33:30.978Z,63.12
2023-03-17T23:35:58.827Z,62.98
2023-03-17T23:38:26.602Z,63.18
2023-03-17T23:40:57.325Z,63.28
2023-03-17T23:43:25.986Z,63.14
2023-03-17T23:45:54.307Z,63.24
2023-03-17T23:48:22.870Z,63.33
2023-03-17T23:50:52.699Z,63.01
2023-03-17T23:53:21.129Z,63.38
2023-03-17T23:55:49.294Z,63.39
2023-03-17T23:58:18.931Z,63.08
